Startpagina
METAR-TAF:

METAR-TAF

Vliegvelden :

Metlakatla, Alaska, Verenigde Staten

breedte: 55-07-52N, lengte: 131-34-41W, hoogte: 0 m

Actueel weer

Dit bericht is 59 minuten geleden gemaakt, om 18:56 UTC
Wind 10 kt uit het noordnoordwesten
Temperatuur 6°C
Vochtigheid 61%
Druk 1027 hPa
Zicht: 16.1 km
Onbewolkt

METAR: PAMM 101856Z AUTO 34010KT 10SM CLR 06/M01 A3034 RMK AO2 SLP265 T00561011 $

Tijdstip: 11:55 (19:55 UTC)


TAF: ontbreekt

Waarnemingen en weersverwachtingen van meer dan 4000 vliegvelden (METAR en TAF).

De beschikbare stations zijn de gele en rode punten op de kaart.

Ga met uw muis naar het station om de naam te zien.

Klik dan om waarnemingen en weersverwachtingen te zien.

kaart wijzigen: klik op de groene knoppen met een zwart kruis om in te zoomen, op de groene knop met een streepje om uit te zoomen of op de groene pijlen voor aangrenzende kaarten.


METAR-TAF: